Allenton, MO (63001)

12:12 PM CDT on September 03, 2015 (GMT -0500)
Old Town | | Change Station
CLOSE
Current Station
Personal Weather Station
Location: Pacific, MO
Elevation: 495 ft
Nearby Weather Stations

Elev 495 ft 38.48 °N, 90.75 °W | Updated 25 seconds ago

Clear
Clear
89.8 °F
Feels Like 99 °F
N
0.0
Wind Variable Wind from SW
Gusts 0.0 mph

Today
High -- | Low -- °F
--% Chance of Precip.
Yesterday
High -- | Low -- °F
Precip. -- in
6:33 AM 7:29 PM
Waning Gibbous, 68% visible
Pressure 29.97 in
Visibility 10.0 miles
Clouds Scattered Clouds 15000 ft
Heat Index 99 °F
Dew Point 74 °F
Humidity 60%
Rainfall 0.00 in
Snow Depth Not available.
UV 7 out of 12
Pollen 11.20 out of 12
Air Quality Not available.
Flu Activity Not available.
METAR KSUS 031654Z 20006KT 10SM SCT150 31/22 A2999 RMK AO2 SLP147 T03060217
Pressure 29.97 in
Visibility 10.0 miles
Clouds Scattered Clouds 15000 ft
Heat Index 99 °F
Dew Point 74 °F
Humidity 60%
Rainfall 0.00 in
Snow Depth Not available.
UV 7 out of 12
Pollen 11.20 out of 12
Air Quality Not available.
Flu Activity Not available.
METAR KSUS 031654Z 20006KT 10SM SCT150 31/22 A2999 RMK AO2 SLP147 T03060217

10-Day Weather Forecast

×

Almanac

Astronomy

Sep. 03, 2015 Rise Set
Actual Time
Civil Twilight
Nautical Twilight
Astronomical Twilight
Moon
Length of Visible Light
Length of Day
Tomorrow will be .
, % of the Moon is Illuminated

Today's Extremes

State Highs State Lows

Community

WunderPhotos

Upload Photos

1,851,990 photos uploaded!

WunderBlogs® & News

Nearby

Air Quality

  Air Quality AQ Index Pollutant
Not available.

Snow Depth

Station Depth Elevation

Earthquake Activity

City Distance Mag. Time & Date
Minimum magnitude displayed is 2.5.

Coastal Water Temperatures

Place Temperature

Stations

Nearby Weather Stations

Station Location Temp. Windchill Dew Point Humidity Wind Precip. Elev Updated Type